Terminal Aerodrome Forecast
Issued by NWS

Home | Current Version | Previous Version | Text Only | Print | Product List | Glossary On
Versions: 1 2 3 4 5 6 7 8 9 10 11 12 13
000
FTUS42 KMHX 301739
TAFISO
TAF
KISO 301739Z 3018/3118 VRB05KT P6SM BKN200
     FM310200 18003KT P6SM BKN050
     FM310800 VRB03KT 5SM BR BKN015
     FM311400 15007KT P6SM VCSH BKN030
      AMD LTD TO CLD VIS AND WIND=

USA.gov is the U.S. government's official web portal to all federal, state and local government web resources and services.